93OI weather

Stouffer's Dublin Heliport
Dublin, Ohio, United States

Public forecast

Using degrees Fahrenheit for public forecast. Weather courtesy of forecast.io.

Closest aviation weather report (METAR) to Stouffer's Dublin Heliport

Closest report is The Ohio State University Airport - Don Scott Field, 3.0 nm (5.6 km) ESE. Retrieved 2020/07/07 23:59 UTC (34 minutes ago):

KOSU 072359Z 15005KT 5SM RA BR SCT050 BKN070 BKN095 22/21 A3001 RMK AO2 P0001 T02220211

Closest aviation forecast (TAF) to Stouffer's Dublin Heliport

Closest forecast is John Glenn Columbus International Airport, 12.7 nm (23.4 km) ESE. Retrieved 2020-07-08 00:30 UTC (3 minutes ago):

TAF KCMH 072328Z 0800/0824 12007KT P6SM -SHRA VCTS BKN060CB TEMPO 0800/0802 3SM SHRA BKN025 FM080200 VRB03KT P6SM SCT090 SCT200 TEMPO 0808/0812 4SM BR FM081700 VRB04KT P6SM VCSH SCT045